Time;durP1;ratioP1;P1;durP2;ratioP2;P2;SDS_P1;SDS_P2;PMS_P1;PMS_P2;Temp;Humidity;BMP_temperature;BMP_pressure;BME280_temperature;BME280_humidity;BME280_pressure;Samples;Min_cycle;Max_cycle;Signal;HPM_P1;HPM_P2
2024/01/25 00:00:56;;;;;;;33.38;4.50;;;9.60;99.90;;;;;;4995646;28;20040;-75
2024/01/25 00:03:22;;;;;;;44.10;5.35;;;9.70;99.90;;;;;;5012841;28;20378;-75
2024/01/25 00:05:48;;;;;;;31.58;4.32;;;9.70;99.90;;;;;;4979789;28;20426;-75
2024/01/25 00:08:14;;;;;;;28.98;4.40;;;9.70;99.90;;;;;;5016832;28;20128;-75
2024/01/25 00:10:40;;;;;;;39.35;4.72;;;9.70;99.90;;;;;;4998886;28;20521;-75
2024/01/25 00:13:05;;;;;;;30.70;4.78;;;9.60;99.90;;;;;;5016894;28;20062;-76
2024/01/25 00:15:31;;;;;;;36.03;5.03;;;9.60;99.90;;;;;;5016443;28;20026;-75
2024/01/25 00:17:56;;;;;;;38.08;4.60;;;9.60;99.90;;;;;;5016852;28;20064;-75
2024/01/25 00:20:22;;;;;;;31.98;4.32;;;9.60;99.90;;;;;;4998621;28;20057;-74
2024/01/25 00:22:48;;;;;;;31.45;3.88;;;9.60;99.90;;;;;;5016089;28;20497;-74
2024/01/25 00:25:14;;;;;;;30.30;4.72;;;9.60;99.90;;;;;;4998873;28;20164;-73
2024/01/25 00:27:39;;;;;;;32.42;4.35;;;9.50;99.90;;;;;;4998833;28;20356;-73
2024/01/25 00:30:05;;;;;;;27.80;4.20;;;9.50;99.90;;;;;;4998670;28;20534;-76
2024/01/25 00:32:31;;;;;;;32.83;4.43;;;9.50;99.90;;;;;;4998612;28;20121;-75
2024/01/25 00:34:57;;;;;;;34.67;4.35;;;9.60;99.90;;;;;;5016260;28;20110;-74
2024/01/25 00:37:23;;;;;;;28.60;5.18;;;9.50;99.90;;;;;;4998916;28;20038;-74
2024/01/25 00:39:49;;;;;;;32.42;4.85;;;9.50;99.90;;;;;;4998283;28;20072;-75
2024/01/25 00:42:16;;;;;;;33.65;4.40;;;9.50;99.90;;;;;;5016204;28;20057;-75
2024/01/25 00:44:42;;;;;;;27.42;4.85;;;9.50;99.90;;;;;;4998635;28;20042;-74
2024/01/25 00:47:09;;;;;;;32.35;4.63;;;9.50;99.90;;;;;;5016555;28;20081;-75
2024/01/25 00:49:35;;;;;;;23.63;3.80;;;9.40;99.90;;;;;;4999179;28;20121;-74
2024/01/25 00:52:03;;;;;;;29.45;4.43;;;9.40;99.90;;;;;;5015841;28;20076;-75
2024/01/25 00:54:29;;;;;;;31.65;4.13;;;9.40;99.90;;;;;;4998436;28;20030;-75
2024/01/25 00:56:55;;;;;;;35.45;5.22;;;9.40;99.90;;;;;;5015839;28;20148;-75
2024/01/25 00:59:21;;;;;;;24.60;4.18;;;9.40;99.90;;;;;;5015882;28;20109;-75
2024/01/25 01:01:48;;;;;;;32.75;4.82;;;9.40;99.90;;;;;;4998422;28;20057;-75
2024/01/25 01:04:14;;;;;;;27.80;4.05;;;9.40;99.90;;;;;;5016040;28;20026;-75
2024/01/25 01:06:41;;;;;;;26.50;4.35;;;9.40;99.90;;;;;;5015591;28;20037;-75
2024/01/25 01:09:07;;;;;;;26.75;3.85;;;9.30;99.90;;;;;;4998010;28;20045;-75
2024/01/25 01:11:33;;;;;;;30.52;4.18;;;9.30;99.90;;;;;;4966512;28;20411;-75
2024/01/25 01:13:58;;;;;;;28.92;4.97;;;9.30;99.90;;;;;;5015467;28;20117;-75
2024/01/25 01:16:24;;;;;;;28.45;4.15;;;9.30;99.90;;;;;;4981736;28;20030;-75
2024/01/25 01:18:50;;;;;;;25.55;4.07;;;9.30;99.90;;;;;;4996546;28;20089;-75
2024/01/25 01:21:15;;;;;;;25.70;4.03;;;9.40;99.90;;;;;;5015901;28;20045;-75
2024/01/25 01:23:41;;;;;;;28.27;3.60;;;9.40;99.90;;;;;;4981622;28;20497;-75
2024/01/25 01:26:07;;;;;;;27.77;4.03;;;9.40;99.90;;;;;;5015581;28;20030;-74
2024/01/25 01:28:33;;;;;;;28.77;4.15;;;9.40;99.90;;;;;;4998247;28;20343;-75
2024/01/25 01:30:58;;;;;;;31.77;4.35;;;9.40;99.90;;;;;;4998154;28;20040;-75
2024/01/25 01:33:24;;;;;;;27.63;4.20;;;9.40;99.90;;;;;;4997998;28;20116;-75
2024/01/25 01:35:50;;;;;;;30.70;4.45;;;9.40;99.90;;;;;;5015304;28;20061;-75
2024/01/25 01:38:15;;;;;;;24.17;4.38;;;9.30;99.90;;;;;;5014824;28;20061;-75
2024/01/25 01:40:41;;;;;;;34.08;4.82;;;9.30;99.90;;;;;;4982344;28;20038;-75
2024/01/25 01:43:07;;;;;;;38.60;6.03;;;9.20;99.90;;;;;;5015296;28;20034;-75
2024/01/25 01:45:32;;;;;;;30.65;4.50;;;9.20;99.90;;;;;;4966372;28;20022;-74
2024/01/25 01:47:59;;;;;;;35.97;5.22;;;9.10;99.90;;;;;;5016007;28;20026;-73
2024/01/25 01:50:25;;;;;;;25.92;4.20;;;9.00;99.90;;;;;;4997579;28;20033;-72
2024/01/25 01:52:51;;;;;;;29.23;4.40;;;8.90;99.90;;;;;;5015240;28;20034;-74
2024/01/25 01:55:18;;;;;;;34.67;4.38;;;8.90;99.90;;;;;;4997505;28;20493;-74
2024/01/25 01:57:45;;;;;;;23.55;4.05;;;8.80;99.90;;;;;;5014962;28;20026;-74
2024/01/25 02:00:14;;;;;;;29.55;4.53;;;8.80;99.90;;;;;;4996923;28;20117;-74
2024/01/25 02:02:40;;;;;;;25.48;4.47;;;8.80;99.90;;;;;;4997458;28;20475;-74
2024/01/25 02:05:05;;;;;;;30.13;5.10;;;8.70;99.90;;;;;;4997290;28;20036;-75
2024/01/25 02:07:31;;;;;;;37.15;5.13;;;8.60;99.90;;;;;;4996968;28;20032;-75
2024/01/25 02:09:57;;;;;;;31.38;4.65;;;8.60;99.90;;;;;;4997562;28;20509;-75
2024/01/25 02:12:23;;;;;;;37.85;5.35;;;8.50;99.90;;;;;;5014833;28;20029;-75
2024/01/25 02:14:48;;;;;;;28.45;3.78;;;8.50;99.90;;;;;;4980972;28;20030;-76
2024/01/25 02:17:14;;;;;;;36.45;4.78;;;8.40;99.90;;;;;;4981386;28;20432;-75
2024/01/25 02:19:40;;;;;;;34.08;4.63;;;8.40;99.90;;;;;;4996670;28;20046;-75
2024/01/25 02:22:06;;;;;;;28.73;5.28;;;8.30;99.90;;;;;;4980423;28;20474;-75
2024/01/25 02:24:32;;;;;;;26.50;3.53;;;8.30;99.90;;;;;;4996993;28;20030;-76
2024/01/25 02:26:58;;;;;;;29.80;4.00;;;8.30;99.90;;;;;;5014488;28;20088;-76
2024/01/25 02:29:23;;;;;;;34.83;4.57;;;8.20;99.90;;;;;;5014468;28;20189;-76
2024/01/25 02:31:49;;;;;;;35.45;4.90;;;8.20;99.90;;;;;;4997014;28;20056;-75
2024/01/25 02:34:15;;;;;;;30.77;4.78;;;8.20;99.90;;;;;;4996606;28;20034;-75
2024/01/25 02:36:40;;;;;;;32.92;4.57;;;8.20;99.90;;;;;;4981008;28;20134;-75
2024/01/25 02:39:06;;;;;;;27.52;4.68;;;8.20;99.90;;;;;;4980351;28;20026;-75
2024/01/25 02:41:32;;;;;;;41.47;5.22;;;8.20;99.90;;;;;;4996233;28;20475;-75
2024/01/25 02:43:59;;;;;;;30.45;4.32;;;8.10;99.90;;;;;;5013928;28;20034;-75
2024/01/25 02:46:25;;;;;;;32.50;4.47;;;8.10;99.90;;;;;;5014145;28;20033;-75
2024/01/25 02:48:50;;;;;;;30.55;4.10;;;8.20;99.90;;;;;;5013909;28;20479;-75
2024/01/25 02:51:16;;;;;;;31.27;4.15;;;8.20;99.90;;;;;;4996293;28;20030;-75
2024/01/25 02:53:42;;;;;;;23.90;3.63;;;8.20;99.90;;;;;;4996339;28;20033;-75
2024/01/25 02:56:07;;;;;;;26.08;4.60;;;8.30;99.90;;;;;;4980319;28;20030;-75
2024/01/25 02:58:33;;;;;;;24.90;3.50;;;8.30;99.90;;;;;;5013718;28;20088;-75
2024/01/25 03:00:59;;;;;;;27.38;3.88;;;8.30;99.90;;;;;;4996218;28;20064;-75
2024/01/25 03:03:24;;;;;;;27.85;4.22;;;8.40;99.90;;;;;;5013847;28;20030;-75
2024/01/25 03:05:53;;;;;;;28.73;4.95;;;8.40;99.90;;;;;;4979753;28;20036;-75
2024/01/25 03:08:19;;;;;;;32.83;5.13;;;8.40;99.90;;;;;;4963595;28;20038;-75
2024/01/25 03:10:46;;;;;;;33.08;4.47;;;8.40;99.90;;;;;;5013460;28;20117;-74
2024/01/25 03:13:11;;;;;;;26.58;4.43;;;8.40;99.90;;;;;;4995852;28;20044;-75
2024/01/25 03:15:37;;;;;;;33.35;4.38;;;8.30;99.90;;;;;;4996550;28;20034;-75
2024/01/25 03:18:03;;;;;;;33.95;4.93;;;8.30;99.90;;;;;;4995919;28;20054;-75
2024/01/25 03:20:29;;;;;;;29.42;3.80;;;8.30;99.90;;;;;;5013441;28;20054;-74
2024/01/25 03:22:55;;;;;;;34.92;5.10;;;8.30;99.90;;;;;;4979576;28;20445;-75
2024/01/25 03:25:21;;;;;;;33.95;4.63;;;8.30;99.90;;;;;;4995578;28;20033;-74
2024/01/25 03:27:46;;;;;;;27.10;4.55;;;8.20;99.90;;;;;;4995585;28;20049;-75
2024/01/25 03:30:12;;;;;;;32.55;4.43;;;8.20;99.90;;;;;;4979386;28;20037;-75
2024/01/25 03:32:38;;;;;;;30.80;4.13;;;8.20;99.90;;;;;;4995909;28;20068;-75
2024/01/25 03:35:04;;;;;;;31.23;4.60;;;8.20;99.90;;;;;;4995475;28;20041;-74
2024/01/25 03:37:29;;;;;;;26.83;3.75;;;8.20;99.90;;;;;;5013114;28;20362;-74
2024/01/25 03:39:55;;;;;;;21.65;3.78;;;8.30;99.90;;;;;;5013653;28;20033;-74
2024/01/25 03:42:21;;;;;;;26.70;4.50;;;8.30;99.90;;;;;;4998324;28;20562;-75
2024/01/25 03:44:47;;;;;;;29.73;3.95;;;8.30;99.90;;;;;;4999793;28;20041;-75
2024/01/25 03:47:12;;;;;;;37.97;4.90;;;8.30;99.90;;;;;;5016910;28;20057;-75
2024/01/25 03:49:38;;;;;;;33.00;4.57;;;8.30;99.90;;;;;;4983948;28;20454;-75
2024/01/25 03:52:05;;;;;;;25.50;4.30;;;8.40;99.90;;;;;;5016676;28;20083;-74
2024/01/25 03:54:30;;;;;;;27.27;4.07;;;8.40;99.90;;;;;;5017298;28;20033;-75
2024/01/25 03:56:56;;;;;;;34.08;4.63;;;8.30;99.90;;;;;;4999366;28;20045;-74
2024/01/25 03:59:22;;;;;;;25.42;3.75;;;8.40;99.90;;;;;;5017019;28;20044;-75
2024/01/25 04:01:48;;;;;;;22.33;3.47;;;8.30;99.90;;;;;;4999389;28;20121;-74
2024/01/25 04:04:15;;;;;;;30.75;5.65;;;8.30;99.90;;;;;;4999367;28;20030;-74
2024/01/25 04:06:48;;;;;;;28.35;4.28;;;8.30;99.90;;;;;;4967218;28;20033;-75
2024/01/25 04:09:15;;;;;;;34.10;4.20;;;8.40;99.90;;;;;;5000377;28;20378;-74
2024/01/25 04:11:41;;;;;;;30.83;4.22;;;8.30;99.90;;;;;;5016694;28;20128;-74
2024/01/25 04:14:07;;;;;;;29.27;5.55;;;8.30;99.90;;;;;;5016474;28;20030;-74
2024/01/25 04:16:35;;;;;;;33.25;5.15;;;8.40;99.90;;;;;;5016466;28;20026;-75
2024/01/25 04:19:01;;;;;;;27.95;4.13;;;8.30;99.90;;;;;;4999051;28;20025;-74
2024/01/25 04:21:27;;;;;;;36.33;5.03;;;8.30;99.90;;;;;;5018474;28;20033;-74
2024/01/25 04:23:53;;;;;;;34.47;4.25;;;8.30;99.90;;;;;;4985196;28;20026;-74
2024/01/25 04:26:18;;;;;;;30.88;3.72;;;8.20;99.90;;;;;;5020583;28;20351;-74
2024/01/25 04:28:44;;;;;;;36.22;4.50;;;8.30;99.90;;;;;;5003488;28;20117;-73
2024/01/25 04:31:10;;;;;;;32.28;5.43;;;8.20;99.90;;;;;;4987348;28;20084;-74
2024/01/25 04:33:37;;;;;;;28.27;4.72;;;8.10;99.90;;;;;;5001937;28;20394;-73
2024/01/25 04:36:03;;;;;;;23.80;4.10;;;8.10;99.90;;;;;;5019221;28;20030;-74
2024/01/25 04:38:29;;;;;;;32.70;5.22;;;8.10;99.90;;;;;;5020068;28;20058;-74
2024/01/25 04:40:55;;;;;;;34.83;4.40;;;8.00;99.90;;;;;;5019739;28;20034;-74
2024/01/25 04:43:20;;;;;;;27.30;4.00;;;8.00;99.90;;;;;;5019263;28;20521;-74
2024/01/25 04:45:46;;;;;;;35.15;4.55;;;8.00;99.90;;;;;;5019004;28;20441;-74
2024/01/25 04:48:11;;;;;;;24.73;4.10;;;8.00;99.90;;;;;;4999205;28;20057;-74
2024/01/25 04:50:39;;;;;;;33.15;6.10;;;8.00;99.90;;;;;;5017553;28;20065;-74
2024/01/25 04:53:05;;;;;;;34.15;4.97;;;8.00;99.90;;;;;;5015119;28;20034;-74
2024/01/25 04:55:30;;;;;;;33.83;4.45;;;7.90;99.90;;;;;;5016194;28;20038;-74
2024/01/25 04:57:56;;;;;;;22.88;4.13;;;7.90;99.90;;;;;;5015768;28;20029;-74
2024/01/25 05:00:22;;;;;;;32.47;4.32;;;7.90;99.90;;;;;;5016025;28;20084;-74
2024/01/25 05:02:48;;;;;;;27.05;4.60;;;7.90;99.90;;;;;;4999103;28;20378;-74
2024/01/25 05:05:15;;;;;;;31.25;4.40;;;8.00;99.90;;;;;;5015490;28;20037;-74
2024/01/25 05:07:41;;;;;;;35.50;4.78;;;8.00;99.90;;;;;;4998240;28;20037;-73
2024/01/25 05:10:07;;;;;;;28.85;4.60;;;7.90;99.90;;;;;;5015342;28;20112;-74
2024/01/25 05:12:33;;;;;;;35.97;4.40;;;7.90;99.90;;;;;;5015684;28;20084;-74
2024/01/25 05:14:59;;;;;;;36.15;5.25;;;7.90;99.90;;;;;;5015217;28;20124;-74
2024/01/25 05:17:24;;;;;;;29.92;4.38;;;7.90;99.90;;;;;;5015568;28;20066;-74
2024/01/25 05:19:50;;;;;;;32.83;4.90;;;7.90;99.90;;;;;;4998250;28;20398;-74
2024/01/25 05:22:16;;;;;;;37.17;4.40;;;7.80;99.90;;;;;;5015043;28;20045;-75
2024/01/25 05:24:42;;;;;;;30.83;5.50;;;7.80;99.90;;;;;;4997957;28;20030;-74
2024/01/25 05:27:07;;;;;;;31.80;4.75;;;7.70;99.90;;;;;;4997553;28;20034;-73
2024/01/25 05:29:33;;;;;;;26.02;3.97;;;7.70;99.90;;;;;;5015308;28;20061;-75
2024/01/25 05:31:59;;;;;;;28.50;4.20;;;7.70;99.90;;;;;;4981287;28;20375;-73
2024/01/25 05:34:25;;;;;;;31.67;4.18;;;7.70;99.90;;;;;;4997497;28;20038;-75
2024/01/25 05:36:50;;;;;;;24.60;3.95;;;7.70;99.90;;;;;;4997592;28;20054;-76
2024/01/25 05:39:17;;;;;;;29.45;4.22;;;7.70;99.90;;;;;;5014723;28;20042;-75
2024/01/25 05:41:44;;;;;;;23.60;4.18;;;7.80;99.90;;;;;;5015114;28;20065;-75
2024/01/25 05:44:11;;;;;;;25.85;3.88;;;7.80;99.90;;;;;;5015021;28;20030;-74
2024/01/25 05:46:37;;;;;;;24.55;3.78;;;7.80;99.90;;;;;;4981252;28;20040;-74
2024/01/25 05:49:03;;;;;;;28.77;4.47;;;7.90;99.90;;;;;;5015346;28;20208;-74
2024/01/25 05:51:28;;;;;;;32.92;4.53;;;7.90;99.90;;;;;;4981527;28;20038;-75
2024/01/25 05:53:54;;;;;;;33.22;4.68;;;7.90;99.90;;;;;;4997044;28;20045;-75
2024/01/25 05:56:20;;;;;;;32.83;4.60;;;7.90;99.90;;;;;;4997528;28;20058;-74
2024/01/25 05:58:45;;;;;;;33.92;4.30;;;7.90;99.90;;;;;;4997152;28;20116;-74
2024/01/25 06:01:11;;;;;;;35.58;5.38;;;7.80;99.90;;;;;;4996679;28;20382;-74
2024/01/25 06:03:36;;;;;;;31.40;5.10;;;7.70;99.90;;;;;;4996675;28;20033;-74
2024/01/25 06:06:02;;;;;;;37.42;5.93;;;7.70;99.90;;;;;;4996968;28;20030;-74
2024/01/25 06:08:28;;;;;;;33.67;5.57;;;7.60;99.90;;;;;;4996429;28;20030;-74
2024/01/25 06:10:53;;;;;;;37.65;4.60;;;7.60;99.90;;;;;;5014243;28;20038;-75
2024/01/25 06:13:19;;;;;;;40.22;5.82;;;7.60;99.90;;;;;;5014124;28;20035;-74
2024/01/25 06:15:45;;;;;;;49.38;5.55;;;7.50;99.90;;;;;;5014615;28;20084;-75
2024/01/25 06:18:10;;;;;;;35.80;5.18;;;7.50;99.90;;;;;;4996891;28;20072;-75
2024/01/25 06:20:36;;;;;;;26.95;4.78;;;7.40;99.90;;;;;;4996213;28;20120;-75
2024/01/25 06:23:01;;;;;;;36.88;5.07;;;7.40;99.90;;;;;;5013978;28;20065;-74
2024/01/25 06:25:30;;;;;;;29.58;4.75;;;7.40;99.90;;;;;;4996326;28;20041;-74
2024/01/25 06:27:57;;;;;;;35.95;4.93;;;7.40;99.90;;;;;;5014012;28;20037;-73
2024/01/25 06:30:24;;;;;;;38.55;5.60;;;7.40;99.90;;;;;;5014364;28;20030;-74
2024/01/25 06:32:49;;;;;;;29.27;5.15;;;7.40;99.90;;;;;;5013918;28;20370;-74
2024/01/25 06:35:15;;;;;;;27.27;4.30;;;7.40;99.90;;;;;;5013901;28;20038;-74
2024/01/25 06:37:41;;;;;;;25.33;4.45;;;7.50;99.90;;;;;;5014218;28;20045;-73
2024/01/25 06:40:07;;;;;;;26.38;4.40;;;7.50;99.90;;;;;;4996314;28;20402;-74
2024/01/25 06:42:33;;;;;;;24.25;3.92;;;7.60;99.90;;;;;;4996362;28;20332;-73
2024/01/25 06:44:59;;;;;;;28.65;4.80;;;7.70;99.90;;;;;;5013388;28;20045;-75
2024/01/25 06:47:24;;;;;;;30.02;3.70;;;7.90;99.90;;;;;;4995799;28;20034;-75
2024/01/25 06:49:51;;;;;;;29.55;4.07;;;7.90;99.90;;;;;;5013476;28;20069;-74
2024/01/25 06:52:18;;;;;;;27.83;4.50;;;8.10;99.90;;;;;;4996437;28;20033;-74
2024/01/25 06:54:43;;;;;;;28.30;4.53;;;8.20;99.90;;;;;;5013689;28;20038;-74
2024/01/25 06:57:09;;;;;;;27.67;4.07;;;8.30;99.90;;;;;;4996437;28;20513;-73
2024/01/25 06:59:34;;;;;;;33.65;4.50;;;8.40;99.90;;;;;;4995825;28;20034;-73
2024/01/25 07:02:02;;;;;;;32.65;5.10;;;8.50;99.90;;;;;;4980922;28;20033;-74
2024/01/25 07:04:28;;;;;;;31.88;5.22;;;8.50;99.90;;;;;;5015685;28;20040;-74
2024/01/25 07:06:54;;;;;;;28.02;4.97;;;8.50;99.90;;;;;;5015856;28;20018;-74
2024/01/25 07:09:20;;;;;;;37.33;5.55;;;8.50;99.90;;;;;;5016150;28;20053;-74
2024/01/25 07:11:46;;;;;;;32.67;5.03;;;8.50;99.90;;;;;;4997177;28;20076;-74
2024/01/25 07:14:11;;;;;;;33.40;4.32;;;8.50;99.90;;;;;;5015175;28;20033;-74
2024/01/25 07:16:37;;;;;;;32.55;4.43;;;8.50;99.90;;;;;;5012825;28;20574;-74
2024/01/25 07:19:03;;;;;;;34.70;4.50;;;8.50;99.90;;;;;;4995876;28;20040;-75
2024/01/25 07:21:32;;;;;;;31.23;5.10;;;8.60;99.90;;;;;;5013362;28;20034;-74
2024/01/25 07:24:02;;;;;;;30.00;5.38;;;8.60;99.90;;;;;;4996697;28;20053;-79
2024/01/25 07:26:28;;;;;;;30.52;5.00;;;8.60;99.90;;;;;;4996745;28;20108;-80
2024/01/25 07:28:57;;;;;;;37.00;7.20;;;8.70;99.90;;;;;;4995767;28;20084;-78
2024/01/25 07:31:26;;;;;;;31.27;5.20;;;8.60;99.90;;;;;;4980159;28;20549;-78
2024/01/25 07:33:53;;;;;;;32.42;4.80;;;8.60;99.90;;;;;;5013533;28;20042;-78
2024/01/25 07:36:19;;;;;;;27.65;4.90;;;8.50;99.90;;;;;;5013072;28;20026;-73
2024/01/25 07:38:46;;;;;;;29.38;4.65;;;8.50;99.90;;;;;;4995338;28;20038;-73
2024/01/25 07:41:13;;;;;;;30.02;4.63;;;8.60;99.90;;;;;;5013284;28;20120;-73
2024/01/25 07:43:39;;;;;;;25.50;5.18;;;8.70;99.90;;;;;;5012995;28;20044;-78
2024/01/25 07:46:04;;;;;;;33.97;5.05;;;8.70;99.90;;;;;;4995419;28;20026;-78
2024/01/25 07:48:30;;;;;;;24.08;4.75;;;8.80;99.90;;;;;;4995573;28;20030;-79
2024/01/25 07:50:56;;;;;;;21.55;4.43;;;8.80;99.90;;;;;;5012840;28;20072;-80
2024/01/25 07:53:22;;;;;;;30.52;5.35;;;8.90;99.90;;;;;;4995298;28;20041;-79
2024/01/25 07:55:48;;;;;;;25.70;5.28;;;8.80;99.90;;;;;;4979458;28;20026;-79
2024/01/25 07:58:17;;;;;;;28.38;4.65;;;8.80;99.90;;;;;;4995315;28;20505;-79
2024/01/25 08:00:43;;;;;;;34.58;5.93;;;8.80;99.90;;;;;;4995009;28;20037;-79
2024/01/25 08:03:09;;;;;;;22.48;4.50;;;8.90;99.90;;;;;;4978789;28;20034;-80
2024/01/25 08:05:35;;;;;;;25.48;4.72;;;8.90;99.90;;;;;;5013685;28;20141;-76
2024/01/25 08:08:01;;;;;;;31.58;5.07;;;8.90;99.90;;;;;;5012681;28;20061;-76
2024/01/25 08:10:26;;;;;;;32.22;4.85;;;8.80;99.90;;;;;;4978689;28;20034;-75
2024/01/25 08:12:53;;;;;;;30.10;4.80;;;8.80;99.90;;;;;;4979469;28;20036;-76
2024/01/25 08:15:19;;;;;;;34.80;5.80;;;8.80;99.90;;;;;;5013251;28;20072;-75
2024/01/25 08:17:45;;;;;;;28.13;4.15;;;8.80;99.90;;;;;;5013026;28;20030;-75
2024/01/25 08:20:13;;;;;;;35.20;6.78;;;8.80;99.90;;;;;;4978502;28;20450;-75
2024/01/25 08:22:40;;;;;;;24.05;4.43;;;8.70;99.90;;;;;;4996064;28;20029;-79
2024/01/25 08:25:06;;;;;;;31.45;5.43;;;8.70;99.90;;;;;;4996841;28;20120;-80
2024/01/25 08:27:32;;;;;;;31.38;5.45;;;8.70;99.90;;;;;;4998154;28;20028;-79
2024/01/25 08:29:58;;;;;;;26.10;5.15;;;8.80;99.90;;;;;;5016991;28;20049;-79
2024/01/25 08:32:23;;;;;;;26.70;5.10;;;8.80;99.90;;;;;;4998698;28;20470;-79
2024/01/25 08:34:49;;;;;;;34.67;5.90;;;8.80;99.90;;;;;;4982192;28;20034;-77
2024/01/25 08:37:15;;;;;;;28.83;5.28;;;8.70;99.90;;;;;;5015938;28;20049;-74
2024/01/25 08:39:40;;;;;;;30.38;5.82;;;8.60;99.90;;;;;;5016001;28;20029;-73
2024/01/25 08:42:06;;;;;;;33.10;5.68;;;8.60;99.90;;;;;;4998472;28;20129;-72
2024/01/25 08:44:32;;;;;;;29.90;5.72;;;8.60;99.90;;;;;;5016133;28;20037;-73
2024/01/25 08:46:58;;;;;;;30.70;5.30;;;8.50;99.90;;;;;;5015945;28;20030;-73
2024/01/25 08:49:24;;;;;;;26.42;4.25;;;8.40;99.90;;;;;;4982107;28;20037;-73
2024/01/25 08:51:50;;;;;;;25.85;4.97;;;8.50;99.90;;;;;;4982307;28;20041;-74
2024/01/25 08:54:15;;;;;;;31.65;4.50;;;8.60;99.90;;;;;;5015988;28;20061;-73
2024/01/25 08:56:41;;;;;;;31.05;5.90;;;8.60;99.90;;;;;;5016022;28;20034;-72
2024/01/25 08:59:07;;;;;;;28.48;4.93;;;8.70;99.90;;;;;;5015516;28;20057;-75
2024/01/25 09:01:33;;;;;;;34.22;5.60;;;8.80;99.90;;;;;;4998080;28;20030;-75
2024/01/25 09:04:02;;;;;;;28.52;5.43;;;8.80;99.90;;;;;;5015478;28;20430;-75
2024/01/25 09:06:29;;;;;;;24.73;4.40;;;8.80;99.90;;;;;;4998228;28;20029;-75
2024/01/25 09:08:55;;;;;;;34.58;5.43;;;8.70;99.90;;;;;;4997788;28;20363;-75
2024/01/25 09:11:20;;;;;;;28.10;4.55;;;8.70;99.90;;;;;;5015454;28;20029;-76
2024/01/25 09:13:47;;;;;;;28.10;5.65;;;8.70;99.90;;;;;;5015473;28;20116;-75
2024/01/25 09:16:13;;;;;;;30.20;5.35;;;8.70;99.90;;;;;;5015473;28;20026;-75
2024/01/25 09:18:39;;;;;;;28.45;5.82;;;8.70;99.90;;;;;;5015439;28;20047;-75
2024/01/25 09:21:05;;;;;;;32.30;5.65;;;8.80;99.90;;;;;;4997491;28;20137;-75
2024/01/25 09:23:30;;;;;;;33.75;6.32;;;8.80;99.90;;;;;;4981296;28;20041;-75
2024/01/25 09:25:56;;;;;;;29.92;6.40;;;8.80;99.90;;;;;;4981728;28;20413;-75
2024/01/25 09:28:22;;;;;;;30.00;5.70;;;8.80;99.90;;;;;;4998006;28;20455;-75
2024/01/25 09:30:48;;;;;;;36.58;6.22;;;8.80;99.90;;;;;;5015113;28;20109;-75
2024/01/25 09:33:14;;;;;;;30.50;5.70;;;8.80;99.90;;;;;;5015458;28;20104;-75
2024/01/25 09:35:40;;;;;;;27.00;5.32;;;8.80;99.90;;;;;;4997316;28;20128;-75
2024/01/25 09:38:07;;;;;;;35.30;5.80;;;8.80;99.90;;;;;;4997806;28;20121;-74
2024/01/25 09:40:33;;;;;;;37.75;6.13;;;8.80;99.90;;;;;;5014688;28;20037;-75
2024/01/25 09:42:59;;;;;;;33.28;6.00;;;8.90;99.90;;;;;;5015019;28;20034;-75
2024/01/25 09:45:25;;;;;;;23.88;5.45;;;8.90;99.90;;;;;;5015338;28;20117;-75
2024/01/25 09:47:51;;;;;;;29.38;6.15;;;8.90;99.90;;;;;;4997133;28;20045;-75
2024/01/25 09:50:16;;;;;;;35.65;6.40;;;8.90;99.90;;;;;;4999104;28;20030;-75
2024/01/25 09:52:55;;;;;;;35.85;6.03;;;8.90;99.90;;;;;;4998151;28;20067;-75
2024/01/25 09:55:24;;;;;;;35.53;6.10;;;8.90;99.90;;;;;;4999537;28;20118;-75
2024/01/25 09:57:53;;;;;;;30.83;5.78;;;8.90;99.90;;;;;;5001791;28;20030;-75
2024/01/25 10:00:20;;;;;;;35.40;5.28;;;8.90;99.90;;;;;;5016644;28;20033;-75
2024/01/25 10:02:49;;;;;;;33.28;5.88;;;8.90;99.90;;;;;;4981196;28;20033;-75
2024/01/25 10:05:15;;;;;;;30.60;5.78;;;8.90;99.90;;;;;;5015070;28;20022;-76
2024/01/25 10:07:43;;;;;;;40.00;6.50;;;9.00;99.90;;;;;;5014710;28;20088;-76
2024/01/25 10:10:10;;;;;;;33.42;6.57;;;9.00;99.90;;;;;;5014125;28;20034;-76
2024/01/25 10:12:38;;;;;;;29.58;5.15;;;9.00;99.90;;;;;;4997251;28;20037;-76
2024/01/25 10:15:04;;;;;;;33.08;6.13;;;9.00;99.90;;;;;;5014448;28;20038;-76
2024/01/25 10:17:30;;;;;;;27.77;5.30;;;9.00;99.90;;;;;;5014533;28;20042;-76
2024/01/25 10:19:56;;;;;;;23.80;4.60;;;9.00;99.90;;;;;;4996493;28;20063;-76
2024/01/25 10:22:22;;;;;;;34.03;5.88;;;9.10;99.90;;;;;;5014166;28;20034;-75
2024/01/25 10:24:50;;;;;;;40.58;6.97;;;9.20;99.90;;;;;;5014695;28;20038;-76
2024/01/25 10:27:16;;;;;;;35.63;6.25;;;9.20;99.90;;;;;;5014296;28;20026;-75
2024/01/25 10:29:42;;;;;;;29.75;5.70;;;9.30;99.90;;;;;;5014504;28;20045;-75
2024/01/25 10:32:09;;;;;;;41.40;6.45;;;9.30;99.90;;;;;;5013737;28;20038;-76
2024/01/25 10:34:38;;;;;;;36.03;6.30;;;9.40;99.90;;;;;;4996388;28;20065;-74
2024/01/25 10:37:07;;;;;;;35.00;5.25;;;9.30;99.90;;;;;;5014037;28;20018;-74
2024/01/25 10:39:33;;;;;;;31.80;5.97;;;9.30;99.90;;;;;;5014131;28;20026;-74
2024/01/25 10:42:00;;;;;;;35.20;5.90;;;9.30;99.90;;;;;;5013911;28;20112;-75
2024/01/25 10:44:26;;;;;;;33.85;6.20;;;9.40;99.90;;;;;;5014208;28;20471;-77
2024/01/25 10:46:54;;;;;;;33.15;6.22;;;9.40;99.90;;;;;;5013439;28;20048;-77
2024/01/25 10:49:20;;;;;;;29.85;5.53;;;9.40;99.90;;;;;;4996119;28;20211;-77
2024/01/25 10:51:46;;;;;;;39.30;5.95;;;9.50;99.90;;;;;;5014242;28;20290;-77
2024/01/25 10:54:14;;;;;;;40.45;7.03;;;9.50;99.90;;;;;;5013820;28;20030;-77
2024/01/25 10:56:43;;;;;;;31.42;7.10;;;9.60;99.90;;;;;;5013631;28;20087;-76
2024/01/25 10:59:10;;;;;;;28.52;6.25;;;9.60;99.90;;;;;;5014011;28;20160;-77
2024/01/25 11:01:36;;;;;;;37.47;7.63;;;9.60;99.90;;;;;;4995834;28;20079;-77
2024/01/25 11:04:02;;;;;;;34.05;6.22;;;9.60;99.90;;;;;;4996220;28;20109;-77
2024/01/25 11:06:28;;;;;;;32.00;5.68;;;9.60;99.90;;;;;;4995811;28;20026;-77
2024/01/25 11:09:08;;;;;;;32.30;6.47;;;9.70;99.90;;;;;;5013133;28;20060;-78
2024/01/25 11:11:37;;;;;;;29.45;6.70;;;9.70;99.90;;;;;;4964557;28;20037;-77
2024/01/25 11:14:03;;;;;;;31.65;5.95;;;9.70;99.90;;;;;;4996383;28;20383;-77
2024/01/25 11:16:31;;;;;;;33.47;5.97;;;9.70;99.90;;;;;;4995844;28;20037;-77
2024/01/25 11:19:04;;;;;;;34.65;6.03;;;9.80;99.90;;;;;;4995477;28;20044;-77
2024/01/25 11:21:50;;;;;;;29.48;6.07;;;9.90;99.90;;;;;;4996131;28;20052;-76
2024/01/25 11:24:29;;;;;;;30.67;6.30;;;10.00;99.90;;;;;;4996291;28;20033;-77
2024/01/25 11:26:55;;;;;;;36.17;6.68;;;10.00;99.90;;;;;;5013311;28;20092;-78
2024/01/25 11:29:27;;;;;;;38.83;6.35;;;10.00;99.90;;;;;;5013447;28;20062;-77
2024/01/25 11:31:52;;;;;;;29.95;5.82;;;10.00;99.90;;;;;;4995786;28;20117;-77
2024/01/25 11:34:18;;;;;;;34.95;6.10;;;10.10;99.90;;;;;;4996035;28;20116;-78
2024/01/25 11:36:44;;;;;;;30.48;6.03;;;10.10;99.90;;;;;;5013125;28;20030;-77
2024/01/25 11:39:11;;;;;;;30.70;5.32;;;10.20;99.90;;;;;;4995640;28;20045;-77
2024/01/25 11:41:37;;;;;;;40.17;8.00;;;10.20;99.90;;;;;;5013382;28;20045;-77
2024/01/25 11:44:04;;;;;;;32.25;6.35;;;10.20;99.90;;;;;;5013326;28;20084;-77
2024/01/25 11:46:30;;;;;;;38.35;6.72;;;10.10;99.90;;;;;;5013016;28;20033;-77
2024/01/25 11:48:57;;;;;;;36.28;7.05;;;10.10;99.90;;;;;;5012770;28;20030;-76
2024/01/25 11:51:23;;;;;;;33.47;7.35;;;10.10;99.90;;;;;;5012907;28;20041;-77
2024/01/25 11:53:49;;;;;;;37.30;7.55;;;10.10;99.90;;;;;;4995483;28;20038;-77
2024/01/25 11:56:26;;;;;;;35.20;8.13;;;10.10;99.90;;;;;;4995588;28;20434;-77
2024/01/25 11:58:52;;;;;;;38.42;8.30;;;10.10;99.90;;;;;;4995662;28;20513;-77
2024/01/25 12:01:20;;;;;;;37.30;6.90;;;10.10;99.90;;;;;;5013028;28;20042;-76
2024/01/25 12:03:46;;;;;;;38.70;8.52;;;10.10;99.90;;;;;;5016481;28;20441;-76
2024/01/25 12:06:12;;;;;;;36.22;7.60;;;10.10;99.90;;;;;;5016972;28;20026;-77
2024/01/25 12:08:38;;;;;;;36.05;7.63;;;10.10;99.90;;;;;;4999123;28;20076;-76
2024/01/25 12:11:08;;;;;;;41.42;7.32;;;10.10;99.90;;;;;;4998895;28;20117;-76
2024/01/25 12:13:42;;;;;;;35.92;7.78;;;10.10;99.90;;;;;;5016971;28;20137;-76
2024/01/25 12:16:09;;;;;;;46.00;7.70;;;10.10;99.90;;;;;;5016745;28;20123;-76
2024/01/25 12:18:35;;;;;;;42.00;9.00;;;10.10;99.90;;;;;;5016417;28;20384;-76
2024/01/25 12:21:02;;;;;;;37.75;7.60;;;10.10;99.90;;;;;;5017337;28;20409;-75
2024/01/25 12:23:35;;;;;;;34.67;7.75;;;10.10;99.90;;;;;;5016682;28;20022;-76
2024/01/25 12:26:05;;;;;;;45.03;8.45;;;10.10;99.90;;;;;;4999927;28;20124;-76
2024/01/25 12:28:32;;;;;;;38.50;7.55;;;10.10;99.90;;;;;;5001669;28;20069;-78
2024/01/25 12:30:59;;;;;;;35.97;7.63;;;10.10;99.90;;;;;;5020768;28;20025;-77
2024/01/25 12:33:25;;;;;;;35.63;7.10;;;10.10;99.90;;;;;;5020908;28;20026;-77
2024/01/25 12:35:51;;;;;;;46.53;8.35;;;10.20;99.90;;;;;;5020101;28;20068;-79
2024/01/25 12:38:17;;;;;;;37.72;7.72;;;10.20;99.90;;;;;;5023409;28;20036;-77
2024/01/25 12:40:45;;;;;;;41.72;7.93;;;10.30;99.90;;;;;;5001941;28;20041;-77